Time;durP1;ratioP1;P1;durP2;ratioP2;P2;SDS_P1;SDS_P2;PMS_P1;PMS_P2;Temp;Humidity;BMP_temperature;BMP_pressure;BME280_temperature;BME280_humidity;BME280_pressure;Samples;Min_cycle;Max_cycle;Signal;HPM_P1;HPM_P2
2022/05/22 00:02:04;;;;;;;4.35;2.25;;;7.00;99.90;;;;;;4893208;29;20072;-79
2022/05/22 00:04:32;;;;;;;3.72;2.03;;;7.00;99.90;;;;;;4896518;29;20060;-79
2022/05/22 00:07:01;;;;;;;4.07;2.47;;;7.00;99.90;;;;;;4896764;29;20140;-79
2022/05/22 00:09:28;;;;;;;2.38;1.88;;;6.90;99.90;;;;;;4897087;29;20140;-78
2022/05/22 00:11:57;;;;;;;2.20;2.00;;;6.90;99.90;;;;;;4889888;29;20045;-78
2022/05/22 00:14:25;;;;;;;2.33;1.90;;;6.80;99.90;;;;;;4887204;29;20060;-78
2022/05/22 00:16:53;;;;;;;2.65;2.17;;;6.80;99.90;;;;;;4897724;29;20533;-79
2022/05/22 00:19:23;;;;;;;4.20;2.20;;;6.80;99.90;;;;;;4897146;29;20426;-78
2022/05/22 00:21:51;;;;;;;2.22;2.03;;;6.80;99.90;;;;;;4892654;29;20048;-78
2022/05/22 00:24:26;;;;;;;3.83;2.30;;;6.80;99.90;;;;;;4896964;29;20104;-77
2022/05/22 00:26:53;;;;;;;5.60;2.63;;;6.70;99.90;;;;;;4895807;29;20083;-78
2022/05/22 00:29:21;;;;;;;2.67;2.10;;;6.70;99.90;;;;;;4894700;29;20045;-78
2022/05/22 00:31:49;;;;;;;2.40;2.08;;;6.70;99.90;;;;;;4896783;29;20109;-79
2022/05/22 00:34:17;;;;;;;2.38;2.00;;;6.70;99.90;;;;;;4896081;29;20067;-79
2022/05/22 00:36:44;;;;;;;3.00;2.50;;;6.70;99.90;;;;;;4895585;29;20429;-79
2022/05/22 00:39:12;;;;;;;1.75;1.65;;;6.60;99.90;;;;;;4893826;29;20148;-79
2022/05/22 00:41:41;;;;;;;4.88;2.17;;;6.60;99.90;;;;;;4898291;29;20093;-78
2022/05/22 00:44:09;;;;;;;2.38;2.10;;;6.60;99.90;;;;;;4890211;29;20429;-78
2022/05/22 00:46:36;;;;;;;2.47;2.10;;;6.60;99.90;;;;;;4908597;29;20426;-79
2022/05/22 00:49:07;;;;;;;2.47;2.25;;;6.50;99.90;;;;;;4894768;29;20517;-78
2022/05/22 00:51:37;;;;;;;2.17;1.98;;;6.50;99.90;;;;;;4896867;29;20082;-78
2022/05/22 00:54:09;;;;;;;2.25;2.03;;;6.50;99.90;;;;;;4895393;29;20432;-79
2022/05/22 00:56:43;;;;;;;3.73;2.17;;;6.40;99.90;;;;;;4893785;29;20055;-78
2022/05/22 00:59:20;;;;;;;2.97;2.15;;;6.40;99.90;;;;;;4894377;29;20155;-78
2022/05/22 01:01:48;;;;;;;2.78;2.00;;;6.40;99.90;;;;;;4875910;29;20072;-79
2022/05/22 01:04:21;;;;;;;5.57;2.20;;;6.40;99.90;;;;;;4893064;29;20049;-78
2022/05/22 01:06:52;;;;;;;2.17;1.80;;;6.30;99.90;;;;;;4906574;29;20532;-81
2022/05/22 01:09:20;;;;;;;4.13;1.85;;;6.30;99.90;;;;;;4867322;29;20045;-81
2022/05/22 01:11:51;;;;;;;4.90;2.72;;;6.30;99.90;;;;;;4884514;29;20135;-81
2022/05/22 01:14:23;;;;;;;2.78;1.98;;;6.30;99.90;;;;;;4893619;29;20052;-81
2022/05/22 01:17:02;;;;;;;5.30;2.20;;;6.30;99.90;;;;;;4890339;29;20061;-80
2022/05/22 01:19:30;;;;;;;2.10;1.90;;;6.30;99.90;;;;;;4897633;29;20076;-81
2022/05/22 01:22:00;;;;;;;6.78;2.30;;;6.30;99.90;;;;;;4879160;29;20049;-80
2022/05/22 01:24:29;;;;;;;4.20;2.03;;;6.30;99.90;;;;;;4893992;29;20056;-81
2022/05/22 01:26:59;;;;;;;2.60;1.60;;;6.30;99.90;;;;;;4893276;29;20052;-80
2022/05/22 01:29:41;;;;;;;2.35;1.67;;;6.30;99.90;;;;;;4892917;29;20060;-81
2022/05/22 01:32:09;;;;;;;5.75;2.13;;;6.30;99.90;;;;;;4878066;29;20127;-80
2022/05/22 01:34:37;;;;;;;3.25;2.00;;;6.20;99.90;;;;;;4894154;29;20135;-80
2022/05/22 01:37:07;;;;;;;3.13;2.55;;;6.20;99.90;;;;;;4895127;29;20060;-80
2022/05/22 01:39:35;;;;;;;2.45;2.00;;;6.10;99.90;;;;;;4893432;29;20045;-80
2022/05/22 01:42:03;;;;;;;6.07;2.42;;;6.10;99.90;;;;;;4893856;29;20147;-79
2022/05/22 01:44:34;;;;;;;4.20;2.67;;;6.10;99.90;;;;;;4874746;29;20041;-81
2022/05/22 01:47:02;;;;;;;4.95;2.05;;;6.10;99.90;;;;;;4892057;29;20055;-80
2022/05/22 01:49:31;;;;;;;3.10;2.03;;;6.10;99.90;;;;;;4895188;29;20063;-81
2022/05/22 01:51:59;;;;;;;4.32;2.50;;;6.10;99.90;;;;;;4893943;29;20056;-81
2022/05/22 01:54:29;;;;;;;5.20;1.75;;;6.10;99.90;;;;;;4894370;29;20056;-80
2022/05/22 01:56:58;;;;;;;5.50;1.90;;;6.10;99.90;;;;;;4894486;29;20417;-80
2022/05/22 01:59:26;;;;;;;8.32;2.08;;;6.10;99.90;;;;;;4892645;29;20075;-81
2022/05/22 02:02:00;;;;;;;4.28;1.90;;;6.10;99.90;;;;;;4894211;29;20533;-80
2022/05/22 02:04:30;;;;;;;6.57;1.80;;;6.10;99.90;;;;;;4886438;29;20079;-83
2022/05/22 02:09:44;;;;;;;2.33;1.85;;;6.10;99.90;;;;;;4882753;29;20053;-82
2022/05/22 02:12:12;;;;;;;4.30;2.00;;;6.10;99.90;;;;;;4894851;29;20052;-82
2022/05/22 02:14:40;;;;;;;3.58;1.75;;;6.10;99.90;;;;;;4895312;29;20044;-82
2022/05/22 02:17:12;;;;;;;;;;;6.10;99.90;;;;;;4892725;29;20060;-82
2022/05/22 02:19:57;;;;;;;4.65;2.10;;;6.10;99.90;;;;;;4875735;29;19927;-81
2022/05/22 02:22:42;;;;;;;3.30;2.17;;;6.10;99.90;;;;;;4880891;29;20096;-82
2022/05/22 02:25:13;;;;;;;2.15;1.80;;;6.10;99.90;;;;;;4897998;29;20048;-82
2022/05/22 02:27:41;;;;;;;5.97;2.20;;;6.10;99.90;;;;;;4893864;29;20065;-82
2022/05/22 02:30:10;;;;;;;2.60;1.75;;;6.10;99.90;;;;;;4892321;29;20081;-82
2022/05/22 02:32:38;;;;;;;15.57;2.47;;;6.10;99.90;;;;;;4886405;29;20055;-80
2022/05/22 02:35:07;;;;;;;3.88;2.00;;;6.10;99.90;;;;;;4896083;29;20408;-80
2022/05/22 02:37:41;;;;;;;4.43;1.90;;;6.00;99.90;;;;;;4873405;29;20055;-83
2022/05/22 02:40:22;;;;;;;2.88;1.85;;;6.10;99.90;;;;;;4878415;29;20055;-82
2022/05/22 02:42:55;;;;;;;2.88;2.00;;;6.10;99.90;;;;;;4897090;29;20518;-83
2022/05/22 02:45:30;;;;;;;5.80;2.22;;;6.10;99.90;;;;;;4896754;29;20055;-82
2022/05/22 02:48:04;;;;;;;2.33;1.70;;;6.10;99.90;;;;;;4883904;29;20525;-82
2022/05/22 02:50:34;;;;;;;2.75;2.10;;;6.10;99.90;;;;;;4896569;29;20067;-82
2022/05/22 02:53:09;;;;;;;7.93;1.90;;;6.10;99.90;;;;;;4897489;29;20506;-80
2022/05/22 02:56:18;;;;;;;2.78;2.20;;;6.10;99.90;;;;;;4912645;29;20377;-83
2022/05/22 02:59:10;;;;;;;2.00;1.73;;;6.10;99.90;;;;;;4883687;29;20056;-80
2022/05/22 03:01:47;;;;;;;2.58;1.90;;;6.20;99.90;;;;;;4898497;29;20063;-81
2022/05/22 03:04:14;;;;;;;3.42;1.70;;;6.20;99.90;;;;;;4896906;29;20139;-81
2022/05/22 03:06:42;;;;;;;5.85;2.53;;;6.20;99.90;;;;;;4899775;29;20139;-80
2022/05/22 03:09:12;;;;;;;2.78;2.08;;;6.30;99.90;;;;;;4870397;29;20061;-82
2022/05/22 03:11:43;;;;;;;4.82;1.83;;;6.30;99.90;;;;;;4894660;29;20155;-82
2022/05/22 03:14:13;;;;;;;2.85;1.25;;;6.30;99.90;;;;;;4888522;29;20482;-82
2022/05/22 03:16:40;;;;;;;2.45;1.95;;;6.30;99.90;;;;;;4905015;29;20518;-81
2022/05/22 03:19:14;;;;;;;;;;;6.30;99.90;;;;;;4884094;29;20049;-81
2022/05/22 03:21:42;;;;;;;5.50;1.90;;;6.40;99.90;;;;;;4906767;29;19950;-82
2022/05/22 03:24:10;;;;;;;7.68;3.95;;;6.40;99.90;;;;;;4905708;29;20052;-82
2022/05/22 03:26:41;;;;;;;3.88;2.17;;;6.40;99.90;;;;;;4880895;29;20045;-82
2022/05/22 03:29:11;;;;;;;8.18;2.13;;;6.50;99.90;;;;;;4897219;29;20071;-82
2022/05/22 03:31:38;;;;;;;3.88;1.40;;;6.50;99.90;;;;;;4879236;29;20121;-81
2022/05/22 03:34:06;;;;;;;3.10;1.67;;;6.50;99.90;;;;;;4896942;29;20079;-81
2022/05/22 03:36:36;;;;;;;3.28;1.70;;;6.60;99.90;;;;;;4892297;29;20092;-82
2022/05/22 03:39:04;;;;;;;3.90;1.85;;;6.60;99.90;;;;;;4870871;29;20060;-80
2022/05/22 03:41:33;;;;;;;4.07;1.30;;;6.70;99.90;;;;;;4904840;29;20052;-80
2022/05/22 03:44:03;;;;;;;2.67;1.50;;;6.80;99.90;;;;;;4888961;29;20143;-84
2022/05/22 03:46:44;;;;;;;3.42;1.60;;;6.80;99.90;;;;;;4897605;29;20056;-82
2022/05/22 03:49:12;;;;;;;2.88;2.58;;;6.80;99.90;;;;;;4896264;29;20088;-81
2022/05/22 03:51:42;;;;;;;2.20;1.40;;;6.90;99.90;;;;;;4896981;29;20060;-82
2022/05/22 03:54:14;;;;;;;2.08;1.60;;;6.90;99.90;;;;;;4895220;29;20055;-81
2022/05/22 03:56:44;;;;;;;2.72;1.70;;;7.00;99.90;;;;;;4897059;29;20049;-80
2022/05/22 03:59:22;;;;;;;3.25;1.67;;;7.00;99.90;;;;;;4899186;29;20045;-81
2022/05/22 04:01:51;;;;;;;1.77;1.40;;;7.10;99.90;;;;;;4901049;29;20049;-82
2022/05/22 04:04:20;;;;;;;2.30;1.60;;;7.20;99.90;;;;;;4893225;29;20136;-81
2022/05/22 04:06:47;;;;;;;2.38;1.25;;;7.30;99.90;;;;;;4896828;29;20052;-81
2022/05/22 04:09:21;;;;;;;2.03;1.30;;;7.30;99.90;;;;;;4892681;29;20063;-82
2022/05/22 04:12:11;;;;;;;4.35;1.60;;;7.40;99.90;;;;;;4912118;29;20054;-83
2022/05/22 04:14:41;;;;;;;1.77;1.17;;;7.40;99.90;;;;;;4887876;29;20084;-84
2022/05/22 04:17:11;;;;;;;1.38;1.27;;;7.50;99.90;;;;;;4897024;29;20049;-82
2022/05/22 04:19:39;;;;;;;5.38;1.73;;;7.60;99.90;;;;;;4897683;29;20414;-82
2022/05/22 04:22:09;;;;;;;4.63;1.60;;;7.60;99.90;;;;;;4879249;29;20053;-81
2022/05/22 04:27:28;;;;;;;1.80;1.58;;;7.70;99.90;;;;;;4898327;29;20060;-81
2022/05/22 04:29:57;;;;;;;2.55;1.30;;;7.80;99.90;;;;;;4880495;29;20055;-83
2022/05/22 04:32:26;;;;;;;1.85;1.20;;;7.90;99.90;;;;;;4890218;29;20040;-82
2022/05/22 04:34:57;;;;;;;2.35;1.38;;;8.00;99.70;;;;;;4895567;29;20048;-82
2022/05/22 04:37:26;;;;;;;4.88;2.22;;;8.00;97.00;;;;;;4896637;29;20521;-82
2022/05/22 04:39:57;;;;;;;2.53;1.33;;;8.10;96.50;;;;;;4879560;29;20055;-81
2022/05/22 04:42:24;;;;;;;1.33;1.23;;;8.20;98.30;;;;;;4895653;29;20513;-81
2022/05/22 04:44:52;;;;;;;3.13;1.20;;;8.20;95.40;;;;;;4892314;29;20119;-81
2022/05/22 04:47:21;;;;;;;2.13;1.50;;;8.30;95.70;;;;;;4901015;29;20045;-81
2022/05/22 04:50:24;;;;;;;2.25;1.30;;;8.40;94.50;;;;;;4893421;29;20067;-81
2022/05/22 04:53:10;;;;;;;2.78;1.10;;;8.40;93.00;;;;;;4898861;29;20521;-81
2022/05/22 04:56:03;;;;;;;2.53;1.50;;;8.50;92.50;;;;;;4895534;29;20549;-83
2022/05/22 04:58:40;;;;;;;1.95;1.73;;;8.50;91.10;;;;;;4879694;29;20052;-82
2022/05/22 05:01:14;;;;;;;;;;;8.50;91.10;;;;;;4898422;29;20139;-83
2022/05/22 05:04:02;;;;;;;1.20;1.10;;;8.60;91.10;;;;;;4892769;29;19934;-78
2022/05/22 05:06:34;;;;;;;1.30;1.17;;;8.70;91.80;;;;;;4913522;29;20715;-78
2022/05/22 05:09:04;;;;;;;1.55;1.45;;;8.70;90.20;;;;;;4876928;29;20452;-78
2022/05/22 05:11:34;;;;;;;2.13;1.10;;;8.80;89.00;;;;;;4887058;29;20049;-78
2022/05/22 05:14:07;;;;;;;5.53;1.17;;;8.90;87.10;;;;;;4895190;29;20096;-79
2022/05/22 05:16:35;;;;;;;2.22;1.45;;;9.10;87.30;;;;;;4895141;29;20061;-78
2022/05/22 05:19:10;;;;;;;2.85;0.82;;;9.20;84.20;;;;;;4875146;29;20492;-78
2022/05/22 05:21:42;;;;;;;3.40;1.13;;;9.30;82.60;;;;;;4893515;29;20088;-78
2022/05/22 05:24:12;;;;;;;1.65;0.95;;;9.40;80.30;;;;;;4894659;29;20052;-79
2022/05/22 05:26:40;;;;;;;1.33;1.10;;;9.60;80.00;;;;;;4871929;29;20045;-79
2022/05/22 05:29:14;;;;;;;4.07;1.25;;;9.80;80.80;;;;;;4890119;29;20429;-81
2022/05/22 05:31:44;;;;;;;3.78;1.30;;;10.20;79.00;;;;;;4897072;29;20057;-82
2022/05/22 05:34:15;;;;;;;3.80;1.20;;;10.70;73.90;;;;;;4897326;29;20057;-78
2022/05/22 05:36:47;;;;;;;2.28;1.02;;;11.30;72.50;;;;;;4891339;29;20052;-78
2022/05/22 05:39:27;;;;;;;3.15;1.00;;;11.80;70.90;;;;;;4888700;29;20137;-80
2022/05/22 05:42:17;;;;;;;;;;;12.20;69.40;;;;;;4881828;29;20135;-81
2022/05/22 05:44:45;;;;;;;3.63;1.75;;;12.70;69.20;;;;;;4896061;29;19966;-83
2022/05/22 05:47:20;;;;;;;2.63;1.60;;;13.10;68.60;;;;;;4884739;29;20132;-83
2022/05/22 05:50:39;;;;;;;2.10;1.00;;;13.40;62.50;;;;;;4897906;29;20063;-81
2022/05/22 05:53:29;;;;;;;2.67;1.45;;;13.80;59.10;;;;;;4891062;29;20055;-80
2022/05/22 05:56:22;;;;;;;2.90;1.20;;;14.10;59.50;;;;;;4883990;29;20088;-78
2022/05/22 05:59:13;;;;;;;4.28;1.00;;;14.50;59.30;;;;;;4877310;29;20048;-83
2022/05/22 06:01:58;;;;;;;2.10;1.10;;;14.90;56.40;;;;;;4909354;29;20049;-85
2022/05/22 06:04:29;;;;;;;1.98;1.38;;;15.20;57.30;;;;;;4888204;29;20060;-80
2022/05/22 06:07:00;;;;;;;2.00;1.10;;;15.60;56.20;;;;;;4865703;29;20071;-86
2022/05/22 06:13:21;;;;;;;1.75;1.50;;;16.30;53.10;;;;;;4880823;29;20044;-81
2022/05/22 06:15:54;;;;;;;0.95;0.93;;;16.50;51.70;;;;;;4893593;29;20052;-78
2022/05/22 06:18:23;;;;;;;1.52;1.23;;;16.90;53.00;;;;;;4899801;29;20055;-79
2022/05/22 06:20:54;;;;;;;2.78;1.30;;;17.10;50.50;;;;;;4901810;29;20060;-80
2022/05/22 06:23:27;;;;;;;2.90;1.50;;;17.30;50.80;;;;;;4899312;29;20092;-82
2022/05/22 06:26:15;;;;;;;1.30;1.20;;;17.50;50.70;;;;;;4902303;29;20052;-79
2022/05/22 06:28:42;;;;;;;1.23;1.15;;;17.70;50.80;;;;;;4902583;29;20104;-80
2022/05/22 06:31:14;;;;;;;1.85;1.38;;;17.90;49.40;;;;;;4895161;29;20524;-80
2022/05/22 06:34:17;;;;;;;2.50;1.65;;;17.90;49.20;;;;;;4894969;29;20510;-80
2022/05/22 06:37:16;;;;;;;2.42;1.40;;;18.20;47.40;;;;;;4901479;29;20090;-84
2022/05/22 06:40:19;;;;;;;3.05;1.30;;;18.60;46.90;;;;;;4917037;29;20185;-75
2022/05/22 06:43:01;;;;;;;1.88;1.52;;;18.70;46.90;;;;;;4900584;29;20060;-78
2022/05/22 06:45:39;;;;;;;3.55;1.33;;;18.90;46.50;;;;;;4901943;29;20067;-77
2022/05/22 06:48:44;;;;;;;3.90;2.15;;;19.20;48.10;;;;;;4899635;29;20056;-77
2022/05/22 06:51:30;;;;;;;2.75;1.35;;;19.50;48.20;;;;;;4901180;29;20094;-80
2022/05/22 06:54:03;;;;;;;1.40;1.30;;;19.70;47.80;;;;;;4912748;29;20049;-80
2022/05/22 06:56:35;;;;;;;5.32;1.50;;;19.70;47.80;;;;;;4912117;29;20048;-84
2022/05/22 06:59:36;;;;;;;1.75;1.40;;;19.90;47.20;;;;;;4908697;29;20573;-83
2022/05/22 07:02:27;;;;;;;3.10;1.40;;;20.10;46.80;;;;;;4912168;29;20413;-76
2022/05/22 07:05:14;;;;;;;;;;;20.20;45.10;;;;;;4886649;29;20545;-77
2022/05/22 07:08:05;;;;;;;5.80;1.60;;;20.10;44.50;;;;;;4904161;29;19934;-78
2022/05/22 07:13:49;;;;;;;1.60;1.42;;;20.60;43.80;;;;;;4909893;29;20052;-79
2022/05/22 07:16:25;;;;;;;1.40;1.15;;;20.80;43.50;;;;;;4909947;29;20044;-85
2022/05/22 07:19:19;;;;;;;1.45;1.20;;;21.00;43.10;;;;;;4906694;29;20105;-83
2022/05/22 07:22:02;;;;;;;5.00;1.30;;;21.00;41.50;;;;;;4905470;29;20048;-83
2022/05/22 07:24:50;;;;;;;2.20;1.60;;;21.10;41.10;;;;;;4910942;29;20100;-82
2022/05/22 07:27:38;;;;;;;6.20;2.30;;;21.30;41.80;;;;;;4902154;29;20045;-82
2022/05/22 07:30:36;;;;;;;1.52;1.23;;;21.30;40.80;;;;;;4890858;29;20096;-77
2022/05/22 07:33:09;;;;;;;2.50;1.40;;;21.60;42.00;;;;;;4901124;29;20045;-81
2022/05/22 07:36:08;;;;;;;2.95;1.60;;;21.70;40.80;;;;;;4903987;29;20044;-80
2022/05/22 07:38:54;;;;;;;31.58;16.67;;;22.00;39.60;;;;;;4902622;29;20060;-85
2022/05/22 07:41:31;;;;;;;4.07;1.75;;;22.10;38.50;;;;;;4900285;29;20056;-86
2022/05/22 07:44:04;;;;;;;1.65;1.33;;;22.20;39.60;;;;;;4899511;29;20413;-81
2022/05/22 07:46:52;;;;;;;3.20;1.83;;;22.30;38.80;;;;;;4893717;29;20053;-82
2022/05/22 07:52:27;;;;;;;3.60;2.22;;;22.70;39.10;;;;;;4904867;29;20053;-83
2022/05/22 07:55:23;;;;;;;1.90;1.40;;;22.80;39.30;;;;;;4902053;29;20077;-83
2022/05/22 07:58:12;;;;;;;1.73;1.50;;;23.10;38.20;;;;;;4903084;29;20057;-77
2022/05/22 08:00:59;;;;;;;3.92;2.20;;;23.40;38.70;;;;;;4884728;29;20053;-77
2022/05/22 08:03:50;;;;;;;3.17;1.75;;;23.50;38.50;;;;;;4893238;29;20067;-77
2022/05/22 08:06:37;;;;;;;2.92;1.92;;;23.60;37.70;;;;;;4885060;29;20049;-77
2022/05/22 08:09:17;;;;;;;3.60;1.73;;;23.90;38.00;;;;;;4892896;29;20447;-76
2022/05/22 08:11:49;;;;;;;2.10;1.90;;;24.00;37.60;;;;;;4893571;29;20048;-76
2022/05/22 08:14:18;;;;;;;5.72;1.70;;;24.20;37.30;;;;;;4887697;29;20139;-76
2022/05/22 08:16:45;;;;;;;4.32;1.55;;;24.20;36.40;;;;;;4897566;29;20049;-78
2022/05/22 08:19:19;;;;;;;2.03;1.48;;;24.00;36.70;;;;;;4899220;29;20067;-82
2022/05/22 08:22:13;;;;;;;2.30;1.73;;;24.10;37.00;;;;;;4895338;29;20116;-85
2022/05/22 08:24:58;;;;;;;2.40;1.90;;;24.20;35.60;;;;;;4892830;29;20052;-82
2022/05/22 08:27:31;;;;;;;3.80;1.65;;;24.30;35.10;;;;;;4906594;29;20036;-80
2022/05/22 08:29:58;;;;;;;4.88;1.75;;;24.40;35.30;;;;;;4902309;29;20059;-76
2022/05/22 08:32:28;;;;;;;7.15;1.80;;;24.70;35.80;;;;;;4889237;29;20144;-76
2022/05/22 08:34:58;;;;;;;3.42;1.52;;;24.90;34.60;;;;;;4911064;29;20052;-79
2022/05/22 08:37:28;;;;;;;1.85;1.38;;;25.30;35.20;;;;;;4894761;29;20502;-77
2022/05/22 08:39:56;;;;;;;2.30;1.70;;;25.50;34.60;;;;;;4895772;29;20068;-77
2022/05/22 08:42:32;;;;;;;2.65;1.80;;;25.50;34.20;;;;;;4900444;29;20055;-78
2022/05/22 08:45:00;;;;;;;3.45;1.88;;;25.50;34.20;;;;;;4910784;29;20053;-76
2022/05/22 08:47:38;;;;;;;3.55;1.67;;;25.50;34.40;;;;;;4882725;29;20057;-78
2022/05/22 08:50:11;;;;;;;5.20;1.52;;;25.50;34.10;;;;;;4894238;29;20101;-75
2022/05/22 08:52:46;;;;;;;1.95;1.60;;;25.70;33.60;;;;;;4887796;29;20143;-76
2022/05/22 08:55:22;;;;;;;2.92;1.60;;;25.90;34.00;;;;;;4893388;29;20497;-78
2022/05/22 09:00:56;;;;;;;1.33;1.25;;;26.30;33.80;;;;;;4876920;29;20055;-76
2022/05/22 09:03:30;;;;;;;3.40;1.45;;;26.60;32.80;;;;;;4910405;29;20056;-77
2022/05/22 09:06:04;;;;;;;2.22;1.70;;;26.80;32.80;;;;;;4903610;29;20048;-76
2022/05/22 09:08:41;;;;;;;3.00;1.75;;;27.00;32.40;;;;;;4887168;29;20125;-77
2022/05/22 09:11:13;;;;;;;13.13;1.75;;;27.00;32.40;;;;;;4918033;29;20044;-84
2022/05/22 09:13:47;;;;;;;1.60;1.42;;;27.10;33.20;;;;;;4916894;29;20063;-83
2022/05/22 09:16:21;;;;;;;2.40;1.48;;;27.30;32.90;;;;;;4911864;29;20080;-82
2022/05/22 09:18:56;;;;;;;4.65;1.77;;;27.10;32.50;;;;;;4905501;29;20048;-77
2022/05/22 09:21:32;;;;;;;7.13;4.35;;;27.10;34.00;;;;;;4894629;29;20052;-78
2022/05/22 09:24:02;;;;;;;3.05;1.50;;;27.10;32.40;;;;;;4896861;29;20049;-75
2022/05/22 09:26:40;;;;;;;1.80;1.25;;;27.00;32.90;;;;;;4895465;29;20049;-76
2022/05/22 09:29:18;;;;;;;5.10;1.45;;;27.10;32.20;;;;;;4894239;29;20080;-79
2022/05/22 09:31:51;;;;;;;2.85;1.42;;;27.20;31.70;;;;;;4900013;29;20104;-80
2022/05/22 09:34:29;;;;;;;1.70;1.55;;;27.30;32.80;;;;;;4927686;29;20153;-80
2022/05/22 09:37:09;;;;;;;4.50;1.58;;;27.50;34.00;;;;;;4925921;29;20056;-78
2022/05/22 09:39:49;;;;;;;2.25;1.52;;;27.60;33.10;;;;;;4923859;29;20143;-83
2022/05/22 09:42:29;;;;;;;2.67;1.25;;;27.60;31.80;;;;;;4896517;29;20063;-81
2022/05/22 09:45:10;;;;;;;5.65;1.67;;;27.70;32.10;;;;;;4914120;29;20378;-80
2022/05/22 09:47:57;;;;;;;3.03;1.60;;;27.90;30.50;;;;;;4908177;29;20051;-80
2022/05/22 09:50:30;;;;;;;3.40;1.55;;;28.00;31.60;;;;;;4903432;29;20100;-85
2022/05/22 09:53:04;;;;;;;2.35;1.13;;;27.90;32.00;;;;;;4915680;29;20746;-80
2022/05/22 09:55:45;;;;;;;2.38;1.48;;;27.90;32.00;;;;;;4917343;29;20082;-80
2022/05/22 09:58:35;;;;;;;1.73;1.33;;;28.10;31.00;;;;;;4915210;29;20144;-80
2022/05/22 10:01:10;;;;;;;1.35;1.25;;;28.10;30.60;;;;;;4898969;29;20060;-82
2022/05/22 10:03:51;;;;;;;3.70;1.65;;;28.20;31.00;;;;;;4904695;29;20084;-86
2022/05/22 10:06:28;;;;;;;2.22;1.40;;;28.30;30.60;;;;;;4904537;29;20080;-82
2022/05/22 10:09:09;;;;;;;3.63;1.23;;;28.40;30.30;;;;;;4918289;29;20054;-82
2022/05/22 10:11:46;;;;;;;1.95;1.30;;;28.50;30.80;;;;;;4908170;29;20290;-83
2022/05/22 10:14:30;;;;;;;3.88;1.50;;;28.40;30.30;;;;;;4894698;29;20051;-77
2022/05/22 10:17:18;;;;;;;1.48;1.38;;;28.00;31.40;;;;;;4892144;29;20075;-79
2022/05/22 10:19:55;;;;;;;3.42;2.20;;;28.00;30.80;;;;;;4891714;29;20165;-76
2022/05/22 10:22:30;;;;;;;2.25;1.58;;;28.20;31.00;;;;;;4889685;29;20532;-81
2022/05/22 10:25:22;;;;;;;2.60;1.60;;;28.20;30.40;;;;;;4875928;29;20565;-81
2022/05/22 10:27:59;;;;;;;2.63;1.15;;;28.30;30.80;;;;;;4893242;29;20101;-85
2022/05/22 10:30:35;;;;;;;2.35;1.10;;;28.50;31.50;;;;;;4893675;29;20124;-76
2022/05/22 10:33:23;;;;;;;3.67;1.25;;;28.70;30.20;;;;;;4899247;29;20048;-80
2022/05/22 10:35:55;;;;;;;1.77;1.27;;;28.90;30.90;;;;;;4899493;29;20052;-78
2022/05/22 10:38:25;;;;;;;2.08;1.38;;;29.00;30.90;;;;;;4911927;29;20529;-84
2022/05/22 10:43:50;;;;;;;2.15;1.27;;;28.90;30.90;;;;;;4901468;29;20044;-83
2022/05/22 10:46:18;;;;;;;2.40;1.48;;;28.80;30.70;;;;;;4903659;29;20061;-82
2022/05/22 10:48:50;;;;;;;2.28;1.35;;;28.90;30.60;;;;;;4887479;29;20139;-84
2022/05/22 10:51:24;;;;;;;6.07;1.60;;;29.10;29.60;;;;;;4904543;29;20052;-84
2022/05/22 10:53:54;;;;;;;3.08;1.33;;;29.00;29.90;;;;;;4895652;29;20044;-82
2022/05/22 10:56:25;;;;;;;5.07;1.65;;;29.20;30.90;;;;;;4895425;29;20056;-75
2022/05/22 10:58:56;;;;;;;1.50;1.40;;;29.20;30.20;;;;;;4895823;29;20136;-75
2022/05/22 11:01:26;;;;;;;1.98;1.27;;;29.10;30.40;;;;;;4903089;29;20050;-78
2022/05/22 11:04:05;;;;;;;2.40;1.35;;;28.90;30.20;;;;;;4904204;29;20052;-75
2022/05/22 11:06:34;;;;;;;2.67;1.35;;;29.00;29.90;;;;;;4902591;29;20045;-76
2022/05/22 11:09:03;;;;;;;4.80;1.38;;;29.20;29.50;;;;;;4904109;29;20134;-80
2022/05/22 11:11:34;;;;;;;1.65;1.52;;;29.50;29.60;;;;;;4902375;29;20144;-75
2022/05/22 11:14:11;;;;;;;1.63;1.23;;;29.70;29.80;;;;;;4906512;29;20052;-76
2022/05/22 11:16:41;;;;;;;1.75;1.38;;;29.80;29.50;;;;;;4903560;29;20160;-77
2022/05/22 11:19:11;;;;;;;1.83;1.65;;;30.10;29.60;;;;;;4905841;29;20045;-77
2022/05/22 11:21:53;;;;;;;2.85;1.60;;;30.20;28.70;;;;;;4902417;29;20056;-75
2022/05/22 11:24:28;;;;;;;6.32;1.30;;;30.00;29.00;;;;;;4910905;29;20080;-82
2022/05/22 11:27:14;;;;;;;2.40;1.48;;;29.90;29.70;;;;;;4910674;29;20108;-82
2022/05/22 11:30:05;;;;;;;3.95;1.70;;;30.10;29.70;;;;;;4906562;29;20086;-76
2022/05/22 11:32:55;;;;;;;2.90;1.60;;;30.40;29.30;;;;;;4905645;29;20159;-84
2022/05/22 11:35:44;;;;;;;2.85;1.40;;;30.50;29.00;;;;;;4905473;29;20083;-83
2022/05/22 11:38:35;;;;;;;1.42;1.33;;;30.60;29.30;;;;;;4905613;29;20049;-83
2022/05/22 11:41:13;;;;;;;4.35;1.55;;;30.70;29.20;;;;;;4898587;29;20082;-83
2022/05/22 11:44:30;;;;;;;2.13;1.02;;;30.80;28.20;;;;;;4908551;29;20483;-82
2022/05/22 11:47:19;;;;;;;2.25;1.40;;;30.70;28.30;;;;;;4908004;29;20099;-85
2022/05/22 11:49:56;;;;;;;1.95;1.13;;;30.60;27.90;;;;;;4905721;29;20060;-77
2022/05/22 11:52:55;;;;;;;2.90;1.45;;;30.30;28.20;;;;;;4901345;29;20051;-78
2022/05/22 11:55:32;;;;;;;2.25;1.35;;;30.40;28.10;;;;;;4905500;29;20104;-79
2022/05/22 11:58:13;;;;;;;1.60;1.27;;;30.60;28.00;;;;;;4902996;29;20139;-76
2022/05/22 12:00:50;;;;;;;3.97;1.60;;;30.40;29.00;;;;;;4903766;29;20056;-76
2022/05/22 12:03:58;;;;;;;3.88;1.50;;;30.60;28.40;;;;;;4908087;29;20056;-85
2022/05/22 12:06:45;;;;;;;3.58;2.10;;;30.70;28.20;;;;;;4904378;29;20831;-81
2022/05/22 12:09:26;;;;;;;2.28;1.40;;;30.70;28.00;;;;;;4907444;29;20088;-84
2022/05/22 12:12:04;;;;;;;1.85;1.35;;;30.70;27.90;;;;;;4907385;29;20057;-77
2022/05/22 12:14:38;;;;;;;1.63;1.33;;;30.90;28.10;;;;;;4904967;29;20145;-83
2022/05/22 12:17:16;;;;;;;1.75;1.65;;;30.90;27.70;;;;;;4906564;29;20055;-85
2022/05/22 12:19:52;;;;;;;4.28;1.63;;;31.10;27.80;;;;;;4907412;29;20508;-81
2022/05/22 12:23:07;;;;;;;3.20;1.50;;;31.20;27.50;;;;;;4905497;29;20072;-78
2022/05/22 12:25:17;;;;;;;3.90;1.73;;;30.90;27.70;;;;;;4906552;29;20095;-83
2022/05/22 12:27:46;;;;;;;5.10;1.48;;;30.70;26.90;;;;;;4907100;29;20060;-82
2022/05/22 12:30:22;;;;;;;3.85;1.55;;;30.50;27.10;;;;;;4905121;29;20538;-85
2022/05/22 12:32:55;;;;;;;3.33;1.52;;;30.50;27.10;;;;;;4907124;29;20511;-78
2022/05/22 12:35:24;;;;;;;2.55;1.60;;;30.50;26.90;;;;;;4901120;29;20052;-75
2022/05/22 12:37:55;;;;;;;3.03;2.70;;;30.70;27.00;;;;;;4904898;29;20064;-76
2022/05/22 12:40:37;;;;;;;2.55;1.70;;;31.00;27.30;;;;;;4906849;29;20045;-83
2022/05/22 12:43:06;;;;;;;1.83;1.40;;;31.30;26.40;;;;;;4906157;29;20151;-84
2022/05/22 12:45:36;;;;;;;3.53;1.63;;;31.00;26.90;;;;;;4902584;29;20043;-82
2022/05/22 12:48:13;;;;;;;2.03;1.80;;;31.00;27.00;;;;;;4906561;29;20055;-83
2022/05/22 12:50:50;;;;;;;1.60;1.33;;;31.20;26.90;;;;;;4906349;29;20148;-82
2022/05/22 12:53:26;;;;;;;2.35;1.50;;;31.10;26.30;;;;;;4902881;29;20053;-77
2022/05/22 12:55:54;;;;;;;4.35;1.80;;;31.00;26.20;;;;;;4903075;29;20466;-75
2022/05/22 12:58:35;;;;;;;2.95;1.65;;;31.00;27.00;;;;;;4903834;29;20092;-76
2022/05/22 13:01:02;;;;;;;2.28;1.63;;;30.90;26.80;;;;;;4901717;29;20088;-76
2022/05/22 13:03:41;;;;;;;2.28;1.42;;;30.70;26.80;;;;;;4899907;29;20520;-77
2022/05/22 13:06:21;;;;;;;2.30;1.52;;;30.70;26.60;;;;;;4904213;29;20052;-75
2022/05/22 13:08:57;;;;;;;4.80;1.75;;;30.90;26.50;;;;;;4902003;29;20098;-77
2022/05/22 13:11:32;;;;;;;5.15;1.77;;;30.80;26.40;;;;;;4901048;29;20860;-76
2022/05/22 13:13:59;;;;;;;5.57;2.08;;;30.50;26.70;;;;;;4907199;29;20075;-83
2022/05/22 13:16:29;;;;;;;2.22;1.60;;;30.40;26.90;;;;;;4908029;29;20048;-84
2022/05/22 13:18:59;;;;;;;5.05;1.70;;;30.60;27.10;;;;;;4910947;29;20486;-84
2022/05/22 13:21:40;;;;;;;2.13;1.42;;;30.70;27.30;;;;;;4906717;29;20074;-78
2022/05/22 13:24:24;;;;;;;3.78;1.63;;;30.70;27.10;;;;;;4910129;29;20536;-84
2022/05/22 13:27:04;;;;;;;6.03;1.95;;;30.80;27.10;;;;;;4908476;29;20545;-85
2022/05/22 13:29:44;;;;;;;2.92;1.80;;;30.80;27.50;;;;;;4908228;29;20048;-78
2022/05/22 13:32:17;;;;;;;3.30;1.70;;;30.80;26.70;;;;;;4908767;29;20150;-83
2022/05/22 13:34:51;;;;;;;8.52;1.88;;;30.70;27.10;;;;;;4903902;29;20055;-84
2022/05/22 13:37:27;;;;;;;4.78;2.30;;;30.70;27.80;;;;;;4907777;29;20138;-82
2022/05/22 13:40:06;;;;;;;7.65;1.67;;;30.70;27.40;;;;;;4905548;29;20055;-84
2022/05/22 13:43:23;;;;;;;6.82;2.00;;;30.60;26.70;;;;;;4904454;29;20522;-80
2022/05/22 13:46:25;;;;;;;2.25;1.52;;;30.60;27.10;;;;;;4906219;29;20100;-84
2022/05/22 13:49:05;;;;;;;3.92;1.70;;;30.30;27.00;;;;;;4903977;29;20139;-84
2022/05/22 13:54:40;;;;;;;2.17;1.70;;;29.60;26.90;;;;;;4903316;29;20062;-76
2022/05/22 13:57:12;;;;;;;1.70;1.50;;;29.40;27.70;;;;;;4903694;29;20048;-75
2022/05/22 13:59:47;;;;;;;2.30;1.92;;;29.30;27.60;;;;;;4900298;29;20060;-76
2022/05/22 14:02:19;;;;;;;3.90;1.55;;;29.10;27.80;;;;;;4901543;29;20159;-75
2022/05/22 14:04:48;;;;;;;1.90;1.40;;;28.70;27.60;;;;;;4901730;29;20052;-76